Time,TemperatureF,DewpointF,PressureIn,WindDirection,WindDirectionDegrees,WindSpeedMPH,WindSpeedGustMPH,Humidity,HourlyPrecipIn,Conditions,Clouds,dailyrainin,SoftwareType,DateUTC
2013-11-14 00:05:00,41.6,41.6,30.25,ESE,103,0.0,0.0,100,0.00,,,0.00,Wunderground v.1.15,2013-11-14 08:05:00,
2013-11-14 00:35:00,42.2,42.2,30.24,ESE,103,0.0,0.0,100,0.00,,,0.00,Wunderground v.1.15,2013-11-14 08:35:00,
2013-11-14 01:05:00,42.3,42.3,30.24,ESE,103,0.0,0.0,100,0.00,,,0.00,Wunderground v.1.15,2013-11-14 09:05:00,
2013-11-14 01:35:00,42.8,42.8,30.22,East,85,0.0,0.0,100,0.00,,,0.00,Wunderground v.1.15,2013-11-14 09:35:00,
2013-11-14 02:05:00,42.9,42.9,30.21,East,85,0.0,0.0,100,0.00,,,0.00,Wunderground v.1.15,2013-11-14 10:05:00,
2013-11-14 02:35:00,42.9,42.9,30.22,East,85,0.0,0.0,100,0.00,,,0.00,Wunderground v.1.15,2013-11-14 10:35:00,
2013-11-14 03:05:00,42.6,42.6,30.22,East,85,0.0,0.0,100,0.00,,,0.00,Wunderground v.1.15,2013-11-14 11:05:00,
2013-11-14 08:35:00,43.6,43.6,30.19,SE,124,0.0,0.0,100,0.00,,,0.00,Wunderground v.1.15,2013-11-14 16:35:00,
2013-11-14 09:05:00,45.1,45.1,30.19,ENE,78,0.0,0.0,100,0.00,,,0.00,Wunderground v.1.15,2013-11-14 17:05:00,
2013-11-14 09:35:00,46.2,46.2,30.19,ENE,78,0.0,0.0,100,0.00,,,0.00,Wunderground v.1.15,2013-11-14 17:35:00,
2013-11-14 10:05:00,47.4,47.4,30.19,ENE,78,0.0,0.0,100,0.00,,,0.00,Wunderground v.1.15,2013-11-14 18:05:00,
2013-11-14 10:35:00,48.5,48.5,30.19,East,82,0.0,0.0,100,0.00,,,0.00,Wunderground v.1.15,2013-11-14 18:35:00,
2013-11-14 11:05:00,49.9,49.9,30.18,East,92,0.0,0.0,100,0.00,,,0.00,Wunderground v.1.15,2013-11-14 19:05:00,
2013-11-14 11:35:00,49.9,49.9,30.18,East,92,0.0,0.0,100,0.00,,,0.00,Wunderground v.1.15,2013-11-14 19:35:00,
2013-11-14 12:05:00,50.7,50.7,30.17,East,92,0.0,0.0,100,0.00,,,0.00,Wunderground v.1.15,2013-11-14 20:05:00,
2013-11-14 12:35:00,51.6,51.6,30.16,East,92,0.0,0.0,100,0.00,,,0.00,Wunderground v.1.15,2013-11-14 20:35:00,
2013-11-14 13:05:00,52.0,52.0,30.14,East,92,0.0,0.0,100,0.00,,,0.00,Wunderground v.1.15,2013-11-14 21:05:00,
2013-11-14 13:35:00,51.7,51.7,30.13,East,92,0.0,0.0,100,0.00,,,0.00,Wunderground v.1.15,2013-11-14 21:35:00,
2013-11-14 14:05:00,52.3,52.0,30.12,East,92,0.0,0.0,99,0.00,,,0.00,Wunderground v.1.15,2013-11-14 22:05:00,
2013-11-14 14:35:00,51.7,51.7,30.11,East,92,0.0,0.0,100,0.00,,,0.00,Wunderground v.1.15,2013-11-14 22:35:00,
2013-11-14 15:05:00,51.3,51.3,30.11,East,92,0.0,0.0,100,0.00,,,0.00,Wunderground v.1.15,2013-11-14 23:05:00,
2013-11-14 15:35:00,50.8,50.8,30.11,East,92,0.0,0.0,100,0.00,,,0.02,Wunderground v.1.15,2013-11-14 23:35:00,
2013-11-14 16:05:00,50.8,50.8,30.11,East,92,0.0,0.0,100,0.00,,,0.02,Wunderground v.1.15,2013-11-15 00:05:00,
2013-11-14 16:35:00,50.5,50.5,30.10,East,92,0.0,0.0,100,0.00,,,0.02,Wunderground v.1.15,2013-11-15 00:35:00,
2013-11-14 17:05:00,49.9,49.9,30.08,East,92,0.0,0.0,100,0.00,,,0.03,Wunderground v.1.15,2013-11-15 01:05:00,
2013-11-14 17:35:00,49.5,49.5,30.08,East,92,0.0,0.0,100,0.00,,,0.04,Wunderground v.1.15,2013-11-15 01:35:00,
2013-11-14 18:05:00,49.2,49.2,30.08,East,92,0.0,0.0,100,0.00,,,0.05,Wunderground v.1.15,2013-11-15 02:05:00,
2013-11-14 18:35:00,48.9,48.9,30.08,East,92,0.0,0.0,100,0.05,,,0.07,Wunderground v.1.15,2013-11-15 02:35:00,
2013-11-14 19:05:00,48.8,48.8,30.07,East,92,0.0,0.0,100,0.10,,,0.10,Wunderground v.1.15,2013-11-15 03:05:00,
2013-11-14 19:35:00,48.6,48.6,30.07,East,92,0.0,0.0,100,0.11,,,0.14,Wunderground v.1.15,2013-11-15 03:35:00,
2013-11-14 20:05:00,48.6,48.6,30.06,East,92,0.0,0.0,100,0.00,,,0.15,Wunderground v.1.15,2013-11-15 04:05:00,
2013-11-14 20:35:00,48.5,48.5,30.07,East,92,0.0,0.0,100,0.10,,,0.24,Wunderground v.1.15,2013-11-15 04:35:00,
2013-11-14 21:05:00,48.5,48.5,30.07,East,92,0.0,0.0,100,0.00,,,0.26,Wunderground v.1.15,2013-11-15 05:05:00,
2013-11-14 21:35:00,48.3,48.3,30.07,East,92,0.0,0.0,100,0.00,,,0.26,Wunderground v.1.15,2013-11-15 05:35:00,
2013-11-14 22:05:00,47.7,47.7,30.07,East,92,0.0,0.0,100,0.00,,,0.26,Wunderground v.1.15,2013-11-15 06:05:00,
2013-11-14 22:35:00,46.4,46.4,30.07,East,92,0.0,0.0,100,0.00,,,0.26,Wunderground v.1.15,2013-11-15 06:35:00,
2013-11-14 23:05:00,46.7,46.7,30.07,East,90,0.0,0.0,100,0.00,,,0.26,Wunderground v.1.15,2013-11-15 07:05:00,
2013-11-14 23:35:00,46.2,46.2,30.06,East,90,0.0,0.0,100,0.00,,,0.26,Wunderground v.1.15,2013-11-15 07:35:00,